Time;durP1;ratioP1;P1;durP2;ratioP2;P2;SDS_P1;SDS_P2;PMS_P1;PMS_P2;Temp;Humidity;BMP_temperature;BMP_pressure;BME280_temperature;BME280_humidity;BME280_pressure;Samples;Min_cycle;Max_cycle;Signal;HPM_P1;HPM_P2
2022/11/15 00:01:20;;;;;;;3.72;2.67;;;;;;;;;;5092203;28;20027;-84
2022/11/15 00:03:46;;;;;;;5.35;2.42;;;;;;;;;;5091786;28;20031;-86
2022/11/15 00:06:11;;;;;;;6.30;1.98;;;;;;;;;;5092268;28;20040;-85
2022/11/15 00:08:37;;;;;;;2.33;1.75;;;;;;;;;;5090921;28;20501;-84
2022/11/15 00:11:03;;;;;;;3.45;2.83;;;;;;;;;;5092502;28;20069;-85
2022/11/15 00:13:29;;;;;;;4.82;2.75;;;;;;;;;;5091162;28;20027;-88
2022/11/15 00:15:58;;;;;;;2.90;1.65;;;;;;;;;;5092508;28;20439;-87
2022/11/15 00:18:23;;;;;;;3.83;2.33;;;;;;;;;;5091014;28;20035;-86
2022/11/15 00:20:49;;;;;;;2.72;2.15;;;;;;;;;;5092113;28;20032;-87
2022/11/15 00:23:14;;;;;;;1.88;1.40;;;;;;;;;;5091553;28;20043;-87
2022/11/15 00:25:40;;;;;;;2.92;1.85;;;;;;;;;;5093173;28;20495;-86
2022/11/15 00:28:05;;;;;;;1.63;1.48;;;;;;;;;;5089923;28;20081;-86
2022/11/15 00:30:31;;;;;;;2.35;1.73;;;;;;;;;;5088446;28;20028;-86
2022/11/15 00:32:56;;;;;;;1.83;1.15;;;;;;;;;;5091539;28;20036;-86
2022/11/15 00:35:22;;;;;;;2.38;1.42;;;;;;;;;;5091639;28;20056;-86
2022/11/15 00:37:49;;;;;;;1.85;1.38;;;;;;;;;;5091079;28;20040;-86
2022/11/15 00:40:15;;;;;;;1.05;0.82;;;;;;;;;;5093029;28;20036;-86
2022/11/15 00:42:41;;;;;;;1.25;1.15;;;;;;;;;;5093744;28;20058;-86
2022/11/15 00:45:07;;;;;;;1.80;1.42;;;;;;;;;;5088533;28;20035;-85
2022/11/15 00:47:32;;;;;;;1.70;1.60;;;;;;;;;;5091662;28;20096;-86
2022/11/15 00:49:57;;;;;;;3.53;2.08;;;;;;;;;;5091675;28;20123;-86
2022/11/15 00:52:23;;;;;;;2.50;2.25;;;;;;;;;;5093706;28;20533;-85
2022/11/15 00:54:48;;;;;;;2.03;1.40;;;;;;;;;;5091164;28;20019;-86
2022/11/15 00:57:14;;;;;;;2.00;1.02;;;;;;;;;;5092775;28;20020;-87
2022/11/15 00:59:39;;;;;;;4.88;2.17;;;;;;;;;;5092115;28;20054;-85
2022/11/15 01:02:04;;;;;;;1.08;0.93;;;;;;;;;;5090751;28;20059;-85
2022/11/15 01:04:30;;;;;;;2.13;1.95;;;;;;;;;;5092284;28;20028;-88
2022/11/15 01:06:55;;;;;;;1.92;1.42;;;;;;;;;;5090458;28;20024;-87
2022/11/15 01:09:24;;;;;;;3.60;1.67;;;;;;;;;;5089620;28;20024;-86
2022/11/15 01:11:49;;;;;;;1.92;1.20;;;;;;;;;;5094332;28;20120;-86
2022/11/15 01:14:15;;;;;;;4.47;1.77;;;;;;;;;;5096965;28;20085;-82
2022/11/15 01:16:40;;;;;;;4.40;2.17;;;;;;;;;;5091217;28;20897;-85
2022/11/15 01:19:06;;;;;;;0.80;0.80;;;;;;;;;;5096337;28;20024;-86
2022/11/15 01:21:31;;;;;;;3.22;1.58;;;;;;;;;;5094896;28;20035;-87
2022/11/15 01:23:57;;;;;;;1.20;1.10;;;;;;;;;;5095583;28;20148;-86
2022/11/15 01:26:24;;;;;;;2.38;1.58;;;;;;;;;;5094811;28;20024;-85
2022/11/15 01:28:50;;;;;;;1.80;1.70;;;;;;;;;;5094637;28;20024;-85
2022/11/15 01:31:18;;;;;;;2.85;2.55;;;;;;;;;;5096307;28;20467;-87
2022/11/15 01:33:44;;;;;;;2.13;1.55;;;;;;;;;;5095950;28;20035;-85
2022/11/15 01:36:18;;;;;;;2.10;1.58;;;;;;;;;;5094694;28;20044;-85
2022/11/15 01:38:44;;;;;;;4.80;2.10;;;;;;;;;;5090319;28;20059;-86
2022/11/15 01:41:19;;;;;;;2.03;1.48;;;;;;;;;;5095732;28;20020;-85
2022/11/15 01:43:48;;;;;;;1.63;1.42;;;;;;;;;;5096353;28;20418;-85
2022/11/15 01:46:23;;;;;;;6.03;2.53;;;;;;;;;;5091370;28;20116;-86
2022/11/15 01:48:53;;;;;;;4.78;2.47;;;;;;;;;;5095366;28;20016;-85
2022/11/15 01:51:21;;;;;;;4.18;1.92;;;;;;;;;;5094587;28;20023;-84
2022/11/15 01:53:51;;;;;;;4.57;3.67;;;;;;;;;;5096256;28;20028;-86
2022/11/15 01:56:21;;;;;;;2.85;2.17;;;;;;;;;;5096042;28;20482;-85
2022/11/15 01:58:47;;;;;;;4.38;3.08;;;;;;;;;;5094756;28;20047;-85
2022/11/15 02:01:13;;;;;;;3.22;1.98;;;;;;;;;;5096694;28;20031;-85
2022/11/15 02:03:49;;;;;;;5.13;2.58;;;;;;;;;;5095937;28;20024;-86
2022/11/15 02:06:14;;;;;;;5.55;2.83;;;;;;;;;;5095908;28;20392;-86
2022/11/15 02:08:41;;;;;;;4.22;2.80;;;;;;;;;;5090947;28;20024;-86
2022/11/15 02:11:09;;;;;;;1.75;1.65;;;;;;;;;;5087794;28;20043;-86
2022/11/15 02:13:36;;;;;;;4.53;2.35;;;;;;;;;;5094420;28;20463;-86
2022/11/15 02:16:48;;;;;;;1.55;1.45;;;;;;;;;;5094408;28;20022;-86
2022/11/15 02:19:31;;;;;;;1.38;1.08;;;;;;;;;;5093664;28;20036;-85
2022/11/15 02:22:36;;;;;;;5.45;1.83;;;;;;;;;;5093243;28;20067;-84
2022/11/15 02:25:23;;;;;;;3.35;1.70;;;;;;;;;;5090003;28;20035;-85
2022/11/15 02:28:10;;;;;;;3.08;1.52;;;;;;;;;;5092410;28;20028;-84
2022/11/15 02:30:46;;;;;;;0.75;0.73;;;;;;;;;;5093312;28;20031;-86
2022/11/15 02:33:32;;;;;;;2.95;2.22;;;;;;;;;;5093306;28;20028;-86
2022/11/15 02:36:02;;;;;;;2.13;1.80;;;;;;;;;;5092484;28;20495;-86
2022/11/15 02:38:49;;;;;;;2.90;2.03;;;;;;;;;;5093068;28;20353;-86
2022/11/15 02:41:28;;;;;;;4.25;1.52;;;;;;;;;;5091775;28;20060;-86
2022/11/15 02:43:59;;;;;;;2.60;1.83;;;;;;;;;;5093838;28;20044;-86
2022/11/15 02:49:19;;;;;;;1.63;1.25;;;;;;;;;;5094951;28;20035;-85
2022/11/15 02:51:48;;;;;;;2.03;1.58;;;;;;;;;;5092733;28;20032;-85
2022/11/15 02:54:26;;;;;;;3.35;1.45;;;;;;;;;;5094309;28;20034;-86
2022/11/15 02:56:55;;;;;;;2.08;1.73;;;;;;;;;;5090458;28;20032;-86
2022/11/15 02:59:30;;;;;;;5.82;1.73;;;;;;;;;;5093249;28;20020;-86
2022/11/15 03:02:24;;;;;;;3.08;2.40;;;;;;;;;;5093627;28;20478;-85
2022/11/15 03:04:55;;;;;;;2.90;1.63;;;;;;;;;;5070203;28;20162;-87
2022/11/15 03:07:45;;;;;;;2.30;2.10;;;;;;;;;;5093061;28;20059;-87
2022/11/15 03:10:26;;;;;;;7.68;3.95;;;;;;;;;;5094272;28;20145;-87
2022/11/15 03:13:00;;;;;;;5.38;2.90;;;;;;;;;;5091318;28;20032;-88
2022/11/15 03:15:37;;;;;;;5.72;3.35;;;;;;;;;;5090678;28;20438;-86
2022/11/15 03:18:41;;;;;;;4.88;3.30;;;;;;;;;;5091896;28;20031;-86
2022/11/15 03:21:11;;;;;;;4.28;2.45;;;;;;;;;;5092346;28;20040;-86
2022/11/15 03:23:38;;;;;;;3.35;2.38;;;;;;;;;;5095138;28;20054;-86
2022/11/15 03:26:06;;;;;;;2.35;2.05;;;;;;;;;;5091275;28;20039;-86
2022/11/15 03:28:40;;;;;;;2.60;2.40;;;;;;;;;;5091115;28;20024;-87
2022/11/15 03:31:46;;;;;;;4.25;2.60;;;;;;;;;;5091151;28;20020;-87
2022/11/15 03:33:57;;;;;;;2.95;2.40;;;;;;;;;;5093859;28;20416;-86
2022/11/15 03:36:24;;;;;;;3.60;2.00;;;;;;;;;;5092946;28;20040;-86
2022/11/15 03:38:53;;;;;;;5.43;2.47;;;;;;;;;;5092610;28;20032;-87
2022/11/15 03:41:28;;;;;;;4.65;3.08;;;;;;;;;;5091734;28;20030;-87
2022/11/15 03:44:04;;;;;;;6.40;3.92;;;;;;;;;;5093531;28;20027;-86
2022/11/15 03:46:39;;;;;;;2.58;1.38;;;;;;;;;;5093850;28;20491;-87
2022/11/15 03:49:10;;;;;;;4.70;2.85;;;;;;;;;;5087789;28;20035;-86
2022/11/15 03:51:36;;;;;;;5.25;2.42;;;;;;;;;;5090164;28;20058;-87
2022/11/15 03:54:06;;;;;;;4.18;2.25;;;;;;;;;;5093882;28;20060;-87
2022/11/15 03:56:31;;;;;;;4.75;3.25;;;;;;;;;;5093992;28;20069;-87
2022/11/15 03:58:57;;;;;;;5.35;3.80;;;;;;;;;;5090928;28;20028;-87
2022/11/15 04:01:22;;;;;;;2.85;2.20;;;;;;;;;;5094264;28;20048;-86
2022/11/15 04:03:48;;;;;;;4.53;2.38;;;;;;;;;;5092959;28;20030;-86
2022/11/15 04:06:13;;;;;;;1.45;1.08;;;;;;;;;;5092897;28;20472;-86
2022/11/15 04:08:39;;;;;;;2.97;2.05;;;;;;;;;;5091360;28;20679;-87
2022/11/15 04:11:04;;;;;;;5.15;2.75;;;;;;;;;;5092005;28;20077;-86
2022/11/15 04:13:29;;;;;;;3.65;2.97;;;;;;;;;;5091855;28;20024;-86
2022/11/15 04:15:55;;;;;;;4.25;3.22;;;;;;;;;;5093079;28;20035;-87
2022/11/15 04:18:20;;;;;;;3.70;1.75;;;;;;;;;;5092018;28;20031;-86
2022/11/15 04:26:20;;;;;;;1.90;1.80;;;;;;;;;;5092494;28;20112;-85
2022/11/15 04:31:29;;;;;;;1.33;1.23;;;;;;;;;;5090721;28;20078;-85
2022/11/15 04:33:55;;;;;;;3.42;2.00;;;;;;;;;;5091882;28;20052;-85
2022/11/15 04:39:05;;;;;;;2.38;1.58;;;;;;;;;;5091960;28;20055;-84
2022/11/15 04:41:30;;;;;;;1.38;1.27;;;;;;;;;;5090750;28;20019;-85
2022/11/15 04:43:56;;;;;;;3.00;1.60;;;;;;;;;;5091359;28;20020;-84
2022/11/15 04:46:22;;;;;;;2.25;1.95;;;;;;;;;;5089515;28;20078;-85
2022/11/15 04:48:48;;;;;;;5.82;4.30;;;;;;;;;;5088467;28;20051;-85
2022/11/15 04:51:13;;;;;;;7.60;3.85;;;;;;;;;;5088446;28;20056;-85
2022/11/15 04:53:38;;;;;;;7.97;4.57;;;;;;;;;;5090440;28;20069;-85
2022/11/15 04:56:04;;;;;;;5.18;4.53;;;;;;;;;;5090187;28;20036;-84
2022/11/15 04:58:29;;;;;;;7.97;6.70;;;;;;;;;;5090710;28;20078;-85
2022/11/15 05:00:55;;;;;;;5.53;4.65;;;;;;;;;;5091726;28;20073;-85
2022/11/15 05:06:05;;;;;;;4.30;2.88;;;;;;;;;;5091773;28;20548;-85
2022/11/15 05:08:31;;;;;;;4.00;3.20;;;;;;;;;;5090505;28;20097;-87
2022/11/15 05:10:56;;;;;;;4.65;2.72;;;;;;;;;;5089876;28;20028;-85
2022/11/15 05:13:21;;;;;;;2.08;1.98;;;;;;;;;;5089927;28;20024;-86
2022/11/15 05:15:47;;;;;;;6.43;2.58;;;;;;;;;;5090187;28;20036;-86
2022/11/15 05:18:12;;;;;;;4.85;4.05;;;;;;;;;;5087702;28;20721;-86
2022/11/15 05:20:38;;;;;;;6.88;5.63;;;;;;;;;;5089814;28;20483;-86
2022/11/15 05:23:03;;;;;;;10.85;6.38;;;;;;;;;;5091074;28;20020;-86
2022/11/15 05:25:29;;;;;;;12.73;6.28;;;;;;;;;;5092031;28;20472;-87
2022/11/15 05:27:54;;;;;;;8.15;6.57;;;;;;;;;;5091705;28;20034;-87
2022/11/15 05:30:19;;;;;;;5.55;4.75;;;;;;;;;;5092195;28;20032;-83
2022/11/15 05:32:45;;;;;;;7.25;4.93;;;;;;;;;;5088871;28;20040;-83
2022/11/15 05:35:21;;;;;;;5.65;4.10;;;;;;;;;;5088847;28;20059;-82
2022/11/15 05:37:48;;;;;;;8.63;6.15;;;;;;;;;;5090722;28;20035;-85
2022/11/15 05:40:13;;;;;;;11.98;6.85;;;;;;;;;;5091057;28;20357;-83
2022/11/15 05:42:39;;;;;;;10.93;7.53;;;;;;;;;;5087698;28;20032;-82
2022/11/15 05:45:06;;;;;;;9.88;7.65;;;;;;;;;;5090377;28;20088;-82
2022/11/15 05:47:35;;;;;;;7.53;6.75;;;;;;;;;;5089434;28;20103;-82
2022/11/15 05:50:01;;;;;;;14.65;7.32;;;;;;;;;;5090935;28;20468;-85
2022/11/15 05:52:31;;;;;;;8.82;6.65;;;;;;;;;;5090000;28;20039;-86
2022/11/15 05:54:57;;;;;;;12.20;7.28;;;;;;;;;;5088559;28;20028;-85
2022/11/15 05:57:24;;;;;;;14.10;7.57;;;;;;;;;;5090379;28;20034;-84
2022/11/15 05:59:49;;;;;;;11.48;7.32;;;;;;;;;;5094322;28;20494;-85
2022/11/15 06:02:15;;;;;;;9.15;5.10;;;;;;;;;;5087311;28;20024;-86
2022/11/15 06:04:40;;;;;;;9.23;5.80;;;;;;;;;;5092004;28;20027;-85
2022/11/15 06:07:05;;;;;;;13.48;7.18;;;;;;;;;;5091867;28;20027;-85
2022/11/15 06:09:31;;;;;;;15.60;6.75;;;;;;;;;;5094195;28;20027;-83
2022/11/15 06:11:56;;;;;;;13.43;8.65;;;;;;;;;;5091002;28;20035;-85
2022/11/15 06:14:21;;;;;;;11.82;8.30;;;;;;;;;;5091386;28;20031;-85
2022/11/15 06:16:47;;;;;;;11.15;6.85;;;;;;;;;;5090463;28;20470;-83
2022/11/15 06:19:12;;;;;;;12.63;6.18;;;;;;;;;;5091465;28;20028;-83
2022/11/15 06:21:37;;;;;;;9.63;7.13;;;;;;;;;;5090809;28;20032;-85
2022/11/15 06:24:04;;;;;;;9.38;6.55;;;;;;;;;;5092534;28;20028;-84
2022/11/15 06:26:30;;;;;;;6.53;4.72;;;;;;;;;;5090845;28;20055;-83
2022/11/15 06:28:55;;;;;;;7.63;5.53;;;;;;;;;;5088792;28;20454;-84
2022/11/15 06:31:20;;;;;;;14.30;6.97;;;;;;;;;;5092714;28;20122;-84
2022/11/15 06:33:46;;;;;;;6.18;3.80;;;;;;;;;;5090455;28;20483;-83
2022/11/15 06:36:16;;;;;;;5.80;4.70;;;;;;;;;;5091636;28;20048;-84
2022/11/15 06:38:42;;;;;;;;;;;;;;;;;;5092465;28;20031;-83
2022/11/15 06:41:09;;;;;;;6.72;4.72;;;;;;;;;;5092930;28;19916;-84
2022/11/15 06:43:36;;;;;;;9.07;5.60;;;;;;;;;;5093766;28;20024;-83
2022/11/15 06:46:03;;;;;;;4.65;4.15;;;;;;;;;;5090105;28;20467;-84
2022/11/15 06:48:30;;;;;;;6.47;4.40;;;;;;;;;;5090268;28;20027;-85
2022/11/15 06:50:57;;;;;;;13.68;7.05;;;;;;;;;;5091912;28;20024;-83
2022/11/15 06:53:24;;;;;;;14.68;4.60;;;;;;;;;;5090079;28;20062;-84
2022/11/15 06:55:49;;;;;;;9.10;5.68;;;;;;;;;;5089090;28;20049;-85
2022/11/15 06:58:15;;;;;;;7.57;5.90;;;;;;;;;;5090434;28;20027;-86
2022/11/15 07:00:41;;;;;;;7.22;5.15;;;;;;;;;;5090032;28;20024;-86
2022/11/15 07:03:06;;;;;;;11.20;7.22;;;;;;;;;;5091931;28;20364;-84
2022/11/15 07:05:32;;;;;;;17.20;7.70;;;;;;;;;;5093456;28;20039;-87
2022/11/15 07:07:58;;;;;;;9.32;7.18;;;;;;;;;;5093792;28;20031;-85
2022/11/15 07:10:25;;;;;;;10.25;7.63;;;;;;;;;;5089272;28;20149;-83
2022/11/15 07:12:51;;;;;;;12.18;8.02;;;;;;;;;;5092057;28;20024;-83
2022/11/15 07:28:59;;;;;;;7.85;5.50;;;;;;;;;;5141541;27;21063;-83
2022/11/15 07:31:25;;;;;;;11.70;7.53;;;;;;;;;;5138408;27;20036;-82
2022/11/15 07:33:50;;;;;;;11.98;8.80;;;;;;;;;;5137184;27;20030;-85
2022/11/15 07:36:16;;;;;;;16.05;10.25;;;;;;;;;;5139455;27;20402;-85
2022/11/15 07:38:42;;;;;;;17.92;12.45;;;;;;;;;;5137651;27;20027;-84
2022/11/15 07:41:07;;;;;;;14.75;9.75;;;;;;;;;;5133236;27;20057;-82
2022/11/15 07:43:33;;;;;;;11.20;8.02;;;;;;;;;;5137595;27;20450;-82
2022/11/15 07:46:03;;;;;;;17.60;10.85;;;;;;;;;;5139899;27;20355;-84
2022/11/15 07:48:29;;;;;;;;;;;;;;;;;;5135725;27;20110;-81
2022/11/15 07:50:54;;;;;;;16.80;9.52;;;;;;;;;;5135818;27;19962;-85
2022/11/15 07:53:19;;;;;;;8.85;6.22;;;;;;;;;;5136855;27;20459;-83
2022/11/15 07:55:45;;;;;;;17.45;8.48;;;;;;;;;;5140766;27;20030;-83
2022/11/15 07:58:12;;;;;;;19.58;9.80;;;;;;;;;;5136724;27;20023;-84
2022/11/15 08:00:38;;;;;;;29.08;14.20;;;;;;;;;;5135474;27;20036;-84
2022/11/15 08:03:17;;;;;;;43.63;18.20;;;;;;;;;;5132901;27;20031;-85
2022/11/15 08:05:43;;;;;;;15.88;9.90;;;;;;;;;;5134026;27;20431;-84
2022/11/15 08:08:11;;;;;;;24.33;10.60;;;;;;;;;;5136067;27;20019;-86
2022/11/15 08:10:44;;;;;;;15.25;9.35;;;;;;;;;;5137329;27;20027;-85
2022/11/15 08:13:55;;;;;;;14.88;8.68;;;;;;;;;;5126067;27;20038;-86
2022/11/15 08:16:27;;;;;;;20.70;10.30;;;;;;;;;;5118149;27;20027;-85
2022/11/15 08:18:52;;;;;;;23.52;10.32;;;;;;;;;;5127428;27;20035;-84
2022/11/15 08:21:33;;;;;;;17.60;10.45;;;;;;;;;;5128315;27;20038;-84
2022/11/15 08:24:13;;;;;;;16.13;9.50;;;;;;;;;;5145903;27;20031;-85
2022/11/15 08:27:14;;;;;;;22.00;11.13;;;;;;;;;;5122503;27;20030;-85
2022/11/15 08:30:05;;;;;;;20.88;9.38;;;;;;;;;;5137432;27;20027;-84
2022/11/15 08:32:52;;;;;;;35.60;13.73;;;;;;;;;;5130460;27;20027;-84
2022/11/15 08:38:21;;;;;;;33.47;12.05;;;;;;;;;;5130634;27;20045;-83
2022/11/15 08:40:53;;;;;;;14.65;9.27;;;;;;;;;;5119816;27;20035;-82
2022/11/15 08:43:18;;;;;;;14.30;8.50;;;;;;;;;;5116355;27;20034;-83
2022/11/15 08:45:46;;;;;;;18.23;10.05;;;;;;;;;;5122163;27;20451;-84
2022/11/15 08:48:11;;;;;;;22.95;10.07;;;;;;;;;;5110078;27;20191;-83
2022/11/15 08:50:40;;;;;;;22.73;13.52;;;;;;;;;;5119273;27;20329;-83
2022/11/15 08:53:13;;;;;;;33.10;14.02;;;;;;;;;;5112288;27;20015;-83
2022/11/15 08:55:49;;;;;;;31.30;14.30;;;;;;;;;;5122050;27;20453;-84
2022/11/15 08:58:26;;;;;;;21.52;11.93;;;;;;;;;;5115578;27;20763;-83
2022/11/15 09:01:07;;;;;;;24.58;11.95;;;;;;;;;;5120842;27;20051;-85
2022/11/15 09:03:36;;;;;;;21.02;11.27;;;;;;;;;;5127117;27;20031;-87
2022/11/15 09:06:07;;;;;;;23.52;10.93;;;;;;;;;;5120774;27;20165;-83
2022/11/15 09:08:38;;;;;;;19.70;11.27;;;;;;;;;;5114916;27;20398;-84
2022/11/15 09:11:05;;;;;;;23.80;12.88;;;;;;;;;;5119063;27;20023;-84
2022/11/15 09:13:30;;;;;;;23.48;12.20;;;;;;;;;;5116496;27;20027;-83
2022/11/15 09:16:00;;;;;;;18.40;10.02;;;;;;;;;;5116162;27;20164;-84
2022/11/15 09:18:25;;;;;;;14.40;10.00;;;;;;;;;;5121669;27;20106;-83
2022/11/15 09:20:54;;;;;;;25.23;12.88;;;;;;;;;;5113368;27;20107;-82
2022/11/15 09:23:19;;;;;;;21.85;10.93;;;;;;;;;;5113759;27;20031;-82
2022/11/15 09:25:45;;;;;;;28.25;12.65;;;;;;;;;;5112630;27;20482;-81
2022/11/15 09:28:10;;;;;;;25.77;12.05;;;;;;;;;;5118997;27;20043;-82
2022/11/15 09:30:36;;;;;;;21.88;10.45;;;;;;;;;;5115345;27;20035;-85
2022/11/15 09:33:09;;;;;;;20.45;10.02;;;;;;;;;;5110443;27;20036;-84
2022/11/15 09:35:35;;;;;;;17.63;9.60;;;;;;;;;;5114444;27;20034;-84
2022/11/15 09:38:00;;;;;;;33.15;12.82;;;;;;;;;;5118124;27;20366;-83
2022/11/15 09:40:26;;;;;;;26.73;11.30;;;;;;;;;;5112139;27;20386;-83
2022/11/15 09:42:57;;;;;;;20.70;11.02;;;;;;;;;;5117283;27;20483;-87
2022/11/15 09:45:34;;;;;;;17.58;9.57;;;;;;;;;;5110306;27;20363;-85
2022/11/15 09:48:11;;;;;;;19.52;10.38;;;;;;;;;;5117790;27;20038;-86
2022/11/15 09:50:46;;;;;;;22.20;11.88;;;;;;;;;;5119472;27;20024;-85
2022/11/15 09:53:15;;;;;;;29.95;12.77;;;;;;;;;;5121686;27;20023;-85
2022/11/15 09:55:57;;;;;;;24.23;9.95;;;;;;;;;;5114743;27;20031;-82
2022/11/15 09:58:37;;;;;;;23.98;11.65;;;;;;;;;;5113420;27;20023;-84
2022/11/15 10:01:10;;;;;;;23.60;12.18;;;;;;;;;;5118501;27;20028;-85
2022/11/15 10:03:41;;;;;;;23.13;11.35;;;;;;;;;;5120372;27;20173;-87
2022/11/15 10:06:24;;;;;;;24.13;11.68;;;;;;;;;;5121421;27;20355;-86
2022/11/15 10:08:53;;;;;;;25.38;12.35;;;;;;;;;;5112210;27;20132;-85
2022/11/15 10:11:30;;;;;;;26.95;13.15;;;;;;;;;;5120764;27;20026;-87
2022/11/15 10:14:20;;;;;;;22.80;10.95;;;;;;;;;;5117943;27;20031;-87
2022/11/15 10:16:49;;;;;;;24.05;13.73;;;;;;;;;;5114685;27;20027;-88
2022/11/15 10:19:17;;;;;;;23.98;13.27;;;;;;;;;;5110366;27;20035;-87
2022/11/15 10:22:00;;;;;;;24.80;13.05;;;;;;;;;;5118011;27;20031;-85
2022/11/15 10:24:28;;;;;;;24.85;12.50;;;;;;;;;;5114526;27;20024;-85
2022/11/15 10:26:54;;;;;;;31.65;13.30;;;;;;;;;;5114270;27;20502;-85
2022/11/15 10:29:21;;;;;;;22.67;12.85;;;;;;;;;;5111712;27;20565;-86
2022/11/15 10:31:47;;;;;;;27.35;16.20;;;;;;;;;;5121626;27;20039;-85
2022/11/15 10:34:19;;;;;;;18.13;11.50;;;;;;;;;;5119288;27;20394;-87
2022/11/15 10:37:01;;;;;;;25.08;11.40;;;;;;;;;;5118340;27;20042;-84
2022/11/15 10:39:27;;;;;;;22.02;12.73;;;;;;;;;;5118592;27;20019;-82
2022/11/15 10:41:54;;;;;;;24.70;13.07;;;;;;;;;;5114395;27;20027;-83
2022/11/15 10:44:31;;;;;;;22.20;12.80;;;;;;;;;;5118980;27;20020;-85
2022/11/15 10:46:56;;;;;;;24.75;12.20;;;;;;;;;;5121999;27;20023;-82
2022/11/15 10:49:28;;;;;;;20.83;13.50;;;;;;;;;;5123292;27;20497;-82
2022/11/15 10:52:00;;;;;;;24.98;13.23;;;;;;;;;;5123095;27;20023;-84
2022/11/15 10:54:47;;;;;;;20.65;13.30;;;;;;;;;;5128166;27;20019;-81
2022/11/15 10:57:15;;;;;;;29.17;13.52;;;;;;;;;;5119771;27;20026;-86
2022/11/15 10:59:47;;;;;;;21.90;11.02;;;;;;;;;;5124361;27;20466;-83
2022/11/15 11:02:33;;;;;;;27.33;14.80;;;;;;;;;;5122662;27;20033;-83
2022/11/15 11:05:00;;;;;;;19.92;13.05;;;;;;;;;;5122794;27;20023;-83
2022/11/15 11:07:31;;;;;;;20.50;13.77;;;;;;;;;;5118459;27;20467;-83
2022/11/15 11:10:17;;;;;;;26.75;13.63;;;;;;;;;;5116275;27;20616;-83
2022/11/15 11:12:43;;;;;;;21.70;14.52;;;;;;;;;;5118786;27;20034;-82
2022/11/15 11:15:14;;;;;;;19.48;12.80;;;;;;;;;;5120014;27;20543;-84
2022/11/15 11:17:54;;;;;;;27.88;14.73;;;;;;;;;;5123739;27;20059;-82
2022/11/15 11:20:40;;;;;;;24.05;13.57;;;;;;;;;;5118606;27;20074;-82
2022/11/15 11:23:34;;;;;;;30.80;13.98;;;;;;;;;;5120840;27;20581;-82
2022/11/15 11:26:17;;;;;;;23.67;11.43;;;;;;;;;;5112868;28;20023;-82
2022/11/15 11:28:52;;;;;;;23.42;12.15;;;;;;;;;;5116302;28;20084;-84
2022/11/15 11:31:20;;;;;;;29.27;13.60;;;;;;;;;;5124763;27;20425;-84
2022/11/15 11:34:01;;;;;;;27.25;13.32;;;;;;;;;;5123981;28;20031;-83
2022/11/15 11:36:51;;;;;;;26.73;14.32;;;;;;;;;;5116166;28;20024;-84
2022/11/15 11:39:41;;;;;;;23.13;11.95;;;;;;;;;;5115267;28;20115;-83
2022/11/15 11:42:17;;;;;;;16.15;9.25;;;;;;;;;;5126034;27;20535;-84
2022/11/15 11:44:52;;;;;;;17.92;11.48;;;;;;;;;;5121747;28;20033;-84
2022/11/15 11:47:24;;;;;;;21.98;12.70;;;;;;;;;;5121574;28;20053;-82
2022/11/15 11:49:59;;;;;;;18.42;11.65;;;;;;;;;;5119585;27;20096;-84
2022/11/15 11:52:33;;;;;;;23.58;11.63;;;;;;;;;;5125406;28;20428;-83
2022/11/15 11:55:24;;;;;;;27.65;13.93;;;;;;;;;;5124784;28;20526;-85
2022/11/15 11:58:11;;;;;;;21.27;9.77;;;;;;;;;;5118249;28;20082;-83
2022/11/15 12:00:43;;;;;;;17.63;11.68;;;;;;;;;;5118136;28;20479;-86
2022/11/15 12:03:31;;;;;;;22.60;11.70;;;;;;;;;;5116768;28;20086;-84
2022/11/15 12:06:30;;;;;;;21.08;13.35;;;;;;;;;;5106516;28;20445;-84
2022/11/15 12:09:17;;;;;;;22.13;12.80;;;;;;;;;;5120869;27;20026;-84
2022/11/15 12:11:52;;;;;;;21.88;10.30;;;;;;;;;;5119484;28;20043;-84
2022/11/15 12:14:40;;;;;;;23.10;12.10;;;;;;;;;;5117837;28;20042;-86
2022/11/15 12:17:09;;;;;;;21.58;12.80;;;;;;;;;;5119352;27;20032;-83
2022/11/15 12:19:35;;;;;;;23.90;10.82;;;;;;;;;;5128495;27;20076;-84
2022/11/15 12:22:12;;;;;;;24.90;12.43;;;;;;;;;;5119477;27;20028;-85
2022/11/15 12:25:14;;;;;;;24.15;13.18;;;;;;;;;;5130653;27;20075;-85
2022/11/15 12:27:46;;;;;;;17.50;9.68;;;;;;;;;;5104624;27;20031;-84
2022/11/15 12:30:17;;;;;;;19.27;12.00;;;;;;;;;;5125242;27;20089;-85
2022/11/15 12:33:00;;;;;;;18.80;12.85;;;;;;;;;;5122447;27;20058;-85
2022/11/15 12:35:38;;;;;;;17.73;9.52;;;;;;;;;;5118427;27;20031;-85
2022/11/15 12:38:08;;;;;;;21.13;11.10;;;;;;;;;;5125932;27;20422;-86
2022/11/15 12:40:37;;;;;;;24.08;12.43;;;;;;;;;;5125668;27;20385;-85
2022/11/15 12:43:14;;;;;;;23.25;12.45;;;;;;;;;;5125941;27;20027;-84
2022/11/15 12:45:42;;;;;;;17.65;10.15;;;;;;;;;;5121686;27;20023;-86
2022/11/15 12:48:16;;;;;;;20.95;11.05;;;;;;;;;;5127905;27;20023;-85
2022/11/15 12:50:54;;;;;;;24.55;12.15;;;;;;;;;;5120863;27;20027;-84
2022/11/15 12:53:27;;;;;;;23.33;11.30;;;;;;;;;;5123146;27;20411;-87
2022/11/15 12:56:11;;;;;;;23.65;12.68;;;;;;;;;;5140239;27;20031;-85
2022/11/15 12:58:59;;;;;;;18.83;11.07;;;;;;;;;;5120821;27;20015;-84
2022/11/15 13:01:30;;;;;;;23.67;12.30;;;;;;;;;;5119336;27;20027;-83
2022/11/15 13:04:11;;;;;;;14.40;8.95;;;;;;;;;;5109203;27;20027;-84
2022/11/15 13:06:41;;;;;;;24.90;10.95;;;;;;;;;;5122249;27;20031;-84
2022/11/15 13:09:26;;;;;;;23.75;10.75;;;;;;;;;;5114115;27;20451;-84
2022/11/15 13:11:52;;;;;;;16.42;9.73;;;;;;;;;;5119515;27;20077;-85
2022/11/15 13:14:39;;;;;;;25.75;12.05;;;;;;;;;;5124026;27;20031;-83
2022/11/15 13:17:24;;;;;;;15.18;9.60;;;;;;;;;;5122893;27;20364;-87
2022/11/15 13:19:53;;;;;;;18.45;10.85;;;;;;;;;;5121623;27;20039;-85
2022/11/15 13:25:03;;;;;;;19.60;10.35;;;;;;;;;;5126213;27;20131;-84
2022/11/15 13:27:29;;;;;;;19.42;9.65;;;;;;;;;;5127189;27;20032;-87
2022/11/15 13:29:54;;;;;;;23.98;10.70;;;;;;;;;;5122537;27;20471;-85
2022/11/15 13:32:20;;;;;;;19.70;10.27;;;;;;;;;;5122586;27;20024;-86
2022/11/15 13:34:52;;;;;;;16.20;9.93;;;;;;;;;;5124705;27;20110;-84
2022/11/15 13:37:20;;;;;;;19.52;11.13;;;;;;;;;;5127779;27;20451;-87
2022/11/15 13:39:47;;;;;;;16.25;10.40;;;;;;;;;;5121939;27;20023;-85
2022/11/15 13:42:18;;;;;;;14.27;8.48;;;;;;;;;;5116199;27;20107;-85
2022/11/15 13:44:59;;;;;;;22.08;10.02;;;;;;;;;;5123733;27;20543;-84
2022/11/15 13:47:29;;;;;;;28.02;12.38;;;;;;;;;;5128052;27;20068;-87
2022/11/15 13:49:57;;;;;;;24.10;9.88;;;;;;;;;;5118749;27;20019;-84
2022/11/15 13:52:28;;;;;;;22.83;11.43;;;;;;;;;;5124891;27;20060;-86
2022/11/15 13:55:03;;;;;;;20.00;10.27;;;;;;;;;;5118510;27;20032;-85
2022/11/15 13:57:34;;;;;;;20.15;10.32;;;;;;;;;;5119350;27;20019;-86
2022/11/15 14:00:03;;;;;;;18.77;10.85;;;;;;;;;;5123556;27;20398;-87
2022/11/15 14:02:32;;;;;;;16.40;10.95;;;;;;;;;;5121468;27;20019;-87
2022/11/15 14:05:18;;;;;;;14.30;8.60;;;;;;;;;;5114229;27;20023;-84
2022/11/15 14:07:57;;;;;;;13.63;8.52;;;;;;;;;;5112163;27;20047;-86
2022/11/15 14:10:34;;;;;;;18.88;11.55;;;;;;;;;;5113294;27;20536;-84
2022/11/15 14:13:01;;;;;;;14.18;9.90;;;;;;;;;;5121611;27;20378;-86
2022/11/15 14:15:38;;;;;;;17.88;8.45;;;;;;;;;;5116724;27;20027;-84
2022/11/15 14:18:05;;;;;;;14.57;9.43;;;;;;;;;;5114697;27;20028;-87
2022/11/15 14:20:31;;;;;;;32.70;17.02;;;;;;;;;;5120128;27;20027;-83
2022/11/15 14:22:59;;;;;;;20.52;11.55;;;;;;;;;;5111906;27;20027;-83
2022/11/15 14:25:28;;;;;;;21.23;12.32;;;;;;;;;;5118454;27;20026;-84
2022/11/15 14:28:18;;;;;;;11.85;8.43;;;;;;;;;;5114724;27;20520;-86
2022/11/15 14:30:47;;;;;;;13.45;7.47;;;;;;;;;;5118977;27;20413;-83
2022/11/15 14:33:37;;;;;;;10.40;6.50;;;;;;;;;;5117834;27;20028;-85
2022/11/15 14:36:17;;;;;;;8.75;5.18;;;;;;;;;;5110294;27;20070;-84
2022/11/15 14:38:43;;;;;;;6.45;4.07;;;;;;;;;;5117439;27;20023;-86
2022/11/15 14:41:26;;;;;;;5.53;3.80;;;;;;;;;;5115147;27;20073;-85
2022/11/15 14:44:24;;;;;;;4.47;3.00;;;;;;;;;;5116592;27;20163;-89
2022/11/15 14:46:52;;;;;;;4.38;2.80;;;;;;;;;;5083441;27;20035;-83
2022/11/15 14:49:21;;;;;;;8.88;5.38;;;;;;;;;;5117898;27;20035;-88
2022/11/15 14:51:46;;;;;;;5.07;3.72;;;;;;;;;;5113375;27;20046;-87
2022/11/15 14:54:12;;;;;;;8.00;3.40;;;;;;;;;;5116958;27;20023;-84
2022/11/15 14:56:37;;;;;;;4.97;3.05;;;;;;;;;;5119747;27;20019;-86
2022/11/15 14:59:02;;;;;;;6.57;3.63;;;;;;;;;;5125802;27;20041;-85
2022/11/15 15:01:28;;;;;;;4.20;3.08;;;;;;;;;;5112312;27;20170;-86
2022/11/15 15:03:56;;;;;;;5.40;3.55;;;;;;;;;;5116805;27;20053;-85
2022/11/15 15:06:22;;;;;;;6.00;4.30;;;;;;;;;;5119611;27;20019;-86
2022/11/15 15:08:50;;;;;;;5.82;3.60;;;;;;;;;;5111690;28;20024;-84
2022/11/15 15:11:24;;;;;;;6.45;4.45;;;;;;;;;;5115288;27;20043;-84
2022/11/15 15:13:51;;;;;;;7.38;4.43;;;;;;;;;;5119474;27;20027;-85
2022/11/15 15:16:17;;;;;;;4.57;3.65;;;;;;;;;;5120482;27;20023;-84
2022/11/15 15:18:43;;;;;;;4.82;3.58;;;;;;;;;;5117666;27;20344;-84
2022/11/15 15:21:20;;;;;;;8.63;4.18;;;;;;;;;;5113109;27;20031;-83
2022/11/15 15:23:45;;;;;;;9.35;5.68;;;;;;;;;;5119397;27;20463;-83
2022/11/15 15:26:10;;;;;;;9.57;6.50;;;;;;;;;;5118642;28;20041;-83
2022/11/15 15:28:38;;;;;;;10.27;5.38;;;;;;;;;;5117091;27;20051;-83
2022/11/15 15:31:04;;;;;;;9.43;6.40;;;;;;;;;;5117446;28;20103;-83
2022/11/15 15:33:30;;;;;;;7.43;5.10;;;;;;;;;;5111460;27;20055;-83